Aérodrome :
LOGIN :

S'inscrire | Disclaimer

   EN    FR    IT 

 










Légende :    VFR   VFR Marginal   IFR   IFR Intensif   IFR Très Intensif
Visi : 
Plafond : 
>= 8 km
>= 3000ft
5 à 8 km
1000 à 3000 ft
1500m à 5 km
500 à 1000 ft
800 à 1500m
200 à 500 ft
< 800m
< 200 ft
Symboles :   Orages  Brouillard  Fortes neiges  Fortes précipitations  Vent > 20 kt
SIGMETs :   Divers  Orages  Givrage  Turbulence  Onde Orograph.  Cendres Volcan.






- Altitude de l'aérodrome : 308 ft


ESIA - Karlsborg Air Base

DERNIER METAR :
  • 071020Z AUTO 19009KT 9999 SCT048/// OVC076/// 15/07 Q1005

METARs EXPIRÉS :
  • 070950Z AUTO 19009KT 9999 SCT050/// OVC066/// 13/08 Q1005
  • 070920Z AUTO 19011KT 9999 SCT042/// BKN060/// BKN068/// 13/08 Q1005
  • 070850Z AUTO 19013KT 9999 BKN040/// BKN094/// 14/09 Q1004
  • 070820Z AUTO 20012KT 9999 SCT037/// BKN076/// BKN090/// 13/09 Q1004
  • 070750Z AUTO 19013KT 9999 SCT034/// BKN047/// 12/08 Q1004
  • 070720Z AUTO 20012KT 9999 OVC034/// 11/08 Q1004

Prévision TAF périmée.



MET'MAP, la Météo Aéronautique d'un coup d'oeil ! - Copyright ORBIFLY Décembre 2007 - Disclaimer

ORBIFLY MET'MAP TEAM :

Programmation & Développement : Alexandra Zaïnal
Sur une idée originale de : Baudouin d'Aumeries
Assistance à la programmation : Marc-Olivier Méhu
Soutien technique & logistique : Manuel Goepfert

Contact : metmap@orbifly.com




SOURCES & CREDITS :

   NOAA